sensor_id;sensor_type;location;lat;lon;timestamp;temperature;humidity
66594;DHT22;53450;42.584;23.366;2022-11-15T00:02:06;2.05;80.83
66594;DHT22;53450;42.584;23.366;2022-11-15T00:04:50;2.05;80.77
66594;DHT22;53450;42.584;23.366;2022-11-15T00:07:34;2.03;81.17
66594;DHT22;53450;42.584;23.366;2022-11-15T00:10:19;2.00;81.17
66594;DHT22;53450;42.584;23.366;2022-11-15T00:13:08;2.02;81.30
66594;DHT22;53450;42.584;23.366;2022-11-15T00:15:56;2.00;80.47
66594;DHT22;53450;42.584;23.366;2022-11-15T00:18:38;1.96;80.48
66594;DHT22;53450;42.584;23.366;2022-11-15T00:21:22;1.92;80.87
66594;DHT22;53450;42.584;23.366;2022-11-15T00:24:06;1.89;81.25
66594;DHT22;53450;42.584;23.366;2022-11-15T00:26:51;1.92;81.36
66594;DHT22;53450;42.584;23.366;2022-11-15T00:29:39;1.89;81.56
66594;DHT22;53450;42.584;23.366;2022-11-15T00:32:31;1.93;81.53
66594;DHT22;53450;42.584;23.366;2022-11-15T00:35:15;1.92;81.78
66594;DHT22;53450;42.584;23.366;2022-11-15T00:38:00;1.93;81.52
66594;DHT22;53450;42.584;23.366;2022-11-15T00:40:45;1.92;81.41
66594;DHT22;53450;42.584;23.366;2022-11-15T00:43:29;1.97;81.27
66594;DHT22;53450;42.584;23.366;2022-11-15T00:46:20;1.89;81.62
66594;DHT22;53450;42.584;23.366;2022-11-15T00:49:04;1.80;82.13
66594;DHT22;53450;42.584;23.366;2022-11-15T00:51:48;1.79;82.01
66594;DHT22;53450;42.584;23.366;2022-11-15T00:54:32;1.77;82.09
66594;DHT22;53450;42.584;23.366;2022-11-15T00:57:16;1.85;81.99
66594;DHT22;53450;42.584;23.366;2022-11-15T01:00:00;1.87;81.96
66594;DHT22;53450;42.584;23.366;2022-11-15T01:02:45;1.83;82.39
66594;DHT22;53450;42.584;23.366;2022-11-15T01:05:29;1.79;82.53
66594;DHT22;53450;42.584;23.366;2022-11-15T01:08:15;1.75;82.54
66594;DHT22;53450;42.584;23.366;2022-11-15T01:11:01;1.75;82.71
66594;DHT22;53450;42.584;23.366;2022-11-15T01:13:46;1.73;82.74
66594;DHT22;53450;42.584;23.366;2022-11-15T01:16:30;1.72;82.78
66594;DHT22;53450;42.584;23.366;2022-11-15T01:19:14;1.73;82.85
66594;DHT22;53450;42.584;23.366;2022-11-15T01:21:58;1.73;83.03
66594;DHT22;53450;42.584;23.366;2022-11-15T01:24:42;1.73;83.01
66594;DHT22;53450;42.584;23.366;2022-11-15T01:27:26;1.73;82.79
66594;DHT22;53450;42.584;23.366;2022-11-15T01:30:11;1.75;82.63
66594;DHT22;53450;42.584;23.366;2022-11-15T01:32:55;1.73;82.69
66594;DHT22;53450;42.584;23.366;2022-11-15T01:35:39;1.69;82.57
66594;DHT22;53450;42.584;23.366;2022-11-15T01:38:24;1.75;82.40
66594;DHT22;53450;42.584;23.366;2022-11-15T01:41:19;1.80;82.09
66594;DHT22;53450;42.584;23.366;2022-11-15T01:47:30;1.83;81.72
66594;DHT22;53450;42.584;23.366;2022-11-15T01:50:18;1.70;81.78
66594;DHT22;53450;42.584;23.366;2022-11-15T01:53:04;1.69;82.13
66594;DHT22;53450;42.584;23.366;2022-11-15T01:55:49;1.68;82.10
66594;DHT22;53450;42.584;23.366;2022-11-15T01:58:34;1.69;82.19
66594;DHT22;53450;42.584;23.366;2022-11-15T02:01:19;1.65;82.04
66594;DHT22;53450;42.584;23.366;2022-11-15T02:04:16;1.68;82.21
66594;DHT22;53450;42.584;23.366;2022-11-15T02:07:05;1.72;81.89
66594;DHT22;53450;42.584;23.366;2022-11-15T02:09:50;1.68;82.15
66594;DHT22;53450;42.584;23.366;2022-11-15T02:12:36;1.65;82.19
66594;DHT22;53450;42.584;23.366;2022-11-15T02:15:20;1.62;82.12
66594;DHT22;53450;42.584;23.366;2022-11-15T02:18:44;1.62;82.13
66594;DHT22;53450;42.584;23.366;2022-11-15T02:21:34;1.66;82.00
66594;DHT22;53450;42.584;23.366;2022-11-15T02:27:42;1.70;81.91
66594;DHT22;53450;42.584;23.366;2022-11-15T02:30:55;1.66;81.74
66594;DHT22;53450;42.584;23.366;2022-11-15T02:37:16;1.60;81.85
66594;DHT22;53450;42.584;23.366;2022-11-15T02:43:08;1.60;81.81
66594;DHT22;53450;42.584;23.366;2022-11-15T02:47:01;1.63;81.64
66594;DHT22;53450;42.584;23.366;2022-11-15T02:49:52;1.59;81.77
66594;DHT22;53450;42.584;23.366;2022-11-15T02:52:37;1.56;81.98
66594;DHT22;53450;42.584;23.366;2022-11-15T02:55:33;1.51;82.27
66594;DHT22;53450;42.584;23.366;2022-11-15T02:58:35;1.52;82.47
66594;DHT22;53450;42.584;23.366;2022-11-15T03:01:54;1.56;82.78
66594;DHT22;53450;42.584;23.366;2022-11-15T03:04:56;1.55;82.82
66594;DHT22;53450;42.584;23.366;2022-11-15T03:11:07;1.54;81.97
66594;DHT22;53450;42.584;23.366;2022-11-15T03:14:02;1.59;81.61
66594;DHT22;53450;42.584;23.366;2022-11-15T03:17:22;1.62;81.45
66594;DHT22;53450;42.584;23.366;2022-11-15T03:22:49;1.45;82.28
66594;DHT22;53450;42.584;23.366;2022-11-15T03:25:38;1.41;82.58
66594;DHT22;53450;42.584;23.366;2022-11-15T03:29:13;1.42;82.70
66594;DHT22;53450;42.584;23.366;2022-11-15T03:32:03;1.41;82.67
66594;DHT22;53450;42.584;23.366;2022-11-15T03:35:06;1.35;82.97
66594;DHT22;53450;42.584;23.366;2022-11-15T03:38:19;1.32;83.05
66594;DHT22;53450;42.584;23.366;2022-11-15T03:41:07;1.26;83.19
66594;DHT22;53450;42.584;23.366;2022-11-15T03:43:56;1.28;82.97
66594;DHT22;53450;42.584;23.366;2022-11-15T03:46:47;1.21;83.28
66594;DHT22;53450;42.584;23.366;2022-11-15T03:49:35;1.18;83.62
66594;DHT22;53450;42.584;23.366;2022-11-15T03:52:21;1.17;83.67
66594;DHT22;53450;42.584;23.366;2022-11-15T03:55:08;1.17;83.76
66594;DHT22;53450;42.584;23.366;2022-11-15T03:57:55;1.18;83.91
66594;DHT22;53450;42.584;23.366;2022-11-15T04:00:40;1.20;83.71
66594;DHT22;53450;42.584;23.366;2022-11-15T04:03:25;1.21;83.67
66594;DHT22;53450;42.584;23.366;2022-11-15T04:06:09;1.16;83.76
66594;DHT22;53450;42.584;23.366;2022-11-15T04:09:10;1.20;83.60
66594;DHT22;53450;42.584;23.366;2022-11-15T04:11:56;1.21;83.76
66594;DHT22;53450;42.584;23.366;2022-11-15T04:14:41;1.26;83.53
66594;DHT22;53450;42.584;23.366;2022-11-15T04:17:50;1.31;83.89
66594;DHT22;53450;42.584;23.366;2022-11-15T04:23:13;1.38;83.85
66594;DHT22;53450;42.584;23.366;2022-11-15T04:26:18;1.47;83.41
66594;DHT22;53450;42.584;23.366;2022-11-15T04:29:03;1.44;83.31
66594;DHT22;53450;42.584;23.366;2022-11-15T04:32:06;1.39;83.37
66594;DHT22;53450;42.584;23.366;2022-11-15T04:34:50;1.37;83.47
66594;DHT22;53450;42.584;23.366;2022-11-15T04:37:34;1.37;83.59
66594;DHT22;53450;42.584;23.366;2022-11-15T04:40:18;1.39;83.34
66594;DHT22;53450;42.584;23.366;2022-11-15T04:43:03;1.34;83.42
66594;DHT22;53450;42.584;23.366;2022-11-15T04:45:47;1.31;83.57
66594;DHT22;53450;42.584;23.366;2022-11-15T04:48:31;1.32;83.71
66594;DHT22;53450;42.584;23.366;2022-11-15T04:51:16;1.34;83.67
66594;DHT22;53450;42.584;23.366;2022-11-15T04:54:00;1.38;84.04
66594;DHT22;53450;42.584;23.366;2022-11-15T04:56:44;1.37;84.21
66594;DHT22;53450;42.584;23.366;2022-11-15T04:59:28;1.42;84.51
66594;DHT22;53450;42.584;23.366;2022-11-15T05:02:12;1.59;84.60
66594;DHT22;53450;42.584;23.366;2022-11-15T05:04:56;1.58;83.98
66594;DHT22;53450;42.584;23.366;2022-11-15T05:07:40;1.54;83.84
66594;DHT22;53450;42.584;23.366;2022-11-15T05:10:24;1.51;84.12
66594;DHT22;53450;42.584;23.366;2022-11-15T05:13:09;1.45;84.30
66594;DHT22;53450;42.584;23.366;2022-11-15T05:15:53;1.48;84.33
66594;DHT22;53450;42.584;23.366;2022-11-15T05:18:37;1.55;83.80
66594;DHT22;53450;42.584;23.366;2022-11-15T05:21:24;1.60;83.35
66594;DHT22;53450;42.584;23.366;2022-11-15T05:24:10;1.59;83.29
66594;DHT22;53450;42.584;23.366;2022-11-15T05:26:54;1.56;83.29
66594;DHT22;53450;42.584;23.366;2022-11-15T05:29:39;1.55;83.34
66594;DHT22;53450;42.584;23.366;2022-11-15T05:32:23;1.51;83.49
66594;DHT22;53450;42.584;23.366;2022-11-15T05:35:12;1.47;83.68
66594;DHT22;53450;42.584;23.366;2022-11-15T05:37:57;1.52;83.61
66594;DHT22;53450;42.584;23.366;2022-11-15T05:40:41;1.48;83.58
66594;DHT22;53450;42.584;23.366;2022-11-15T05:43:26;1.48;83.58
66594;DHT22;53450;42.584;23.366;2022-11-15T05:48:08;1.45;84.15
66594;DHT22;53450;42.584;23.366;2022-11-15T05:50:53;1.48;84.33
66594;DHT22;53450;42.584;23.366;2022-11-15T05:53:37;1.49;84.46
66594;DHT22;53450;42.584;23.366;2022-11-15T05:56:22;1.59;84.39
66594;DHT22;53450;42.584;23.366;2022-11-15T06:00:28;1.68;84.38
66594;DHT22;53450;42.584;23.366;2022-11-15T06:03:12;1.75;84.18
66594;DHT22;53450;42.584;23.366;2022-11-15T06:05:58;1.89;84.11
66594;DHT22;53450;42.584;23.366;2022-11-15T06:10:47;2.06;84.02
66594;DHT22;53450;42.584;23.366;2022-11-15T06:13:32;2.18;83.81
66594;DHT22;53450;42.584;23.366;2022-11-15T06:16:16;2.33;83.67
66594;DHT22;53450;42.584;23.366;2022-11-15T06:19:01;2.49;83.24
66594;DHT22;53450;42.584;23.366;2022-11-15T06:21:45;2.61;82.78
66594;DHT22;53450;42.584;23.366;2022-11-15T06:24:29;2.72;82.76
66594;DHT22;53450;42.584;23.366;2022-11-15T06:27:13;2.86;82.80
66594;DHT22;53450;42.584;23.366;2022-11-15T06:29:57;3.02;82.60
66594;DHT22;53450;42.584;23.366;2022-11-15T06:34:48;3.28;82.25
66594;DHT22;53450;42.584;23.366;2022-11-15T06:37:33;3.48;82.02
66594;DHT22;53450;42.584;23.366;2022-11-15T06:40:17;3.55;82.33
66594;DHT22;53450;42.584;23.366;2022-11-15T06:43:01;3.71;82.14
66594;DHT22;53450;42.584;23.366;2022-11-15T06:45:46;3.84;81.39
66594;DHT22;53450;42.584;23.366;2022-11-15T06:48:31;4.06;80.93
66594;DHT22;53450;42.584;23.366;2022-11-15T06:51:16;4.20;80.24
66594;DHT22;53450;42.584;23.366;2022-11-15T06:54:01;4.22;80.21
66594;DHT22;53450;42.584;23.366;2022-11-15T06:56:44;4.32;80.47
66594;DHT22;53450;42.584;23.366;2022-11-15T07:01:25;4.46;79.64
66594;DHT22;53450;42.584;23.366;2022-11-15T07:04:16;4.53;78.96
66594;DHT22;53450;42.584;23.366;2022-11-15T07:07:00;4.77;78.36
66594;DHT22;53450;42.584;23.366;2022-11-15T07:09:44;4.91;77.58
66594;DHT22;53450;42.584;23.366;2022-11-15T07:12:28;5.04;76.96
66594;DHT22;53450;42.584;23.366;2022-11-15T07:15:12;5.19;76.64
66594;DHT22;53450;42.584;23.366;2022-11-15T07:19:08;5.36;75.83
66594;DHT22;53450;42.584;23.366;2022-11-15T07:21:53;5.46;75.29
66594;DHT22;53450;42.584;23.366;2022-11-15T07:24:43;5.44;75.07
66594;DHT22;53450;42.584;23.366;2022-11-15T07:27:34;5.52;75.34
66594;DHT22;53450;42.584;23.366;2022-11-15T07:30:18;5.50;76.23
66594;DHT22;53450;42.584;23.366;2022-11-15T07:33:02;5.69;76.57
66594;DHT22;53450;42.584;23.366;2022-11-15T07:35:47;5.77;77.79
66594;DHT22;53450;42.584;23.366;2022-11-15T07:38:35;6.01;77.34
66594;DHT22;53450;42.584;23.366;2022-11-15T07:41:19;6.14;76.62
66594;DHT22;53450;42.584;23.366;2022-11-15T07:44:04;6.22;75.95
66594;DHT22;53450;42.584;23.366;2022-11-15T07:46:54;6.36;74.83
66594;DHT22;53450;42.584;23.366;2022-11-15T07:49:45;6.41;76.53
66594;DHT22;53450;42.584;23.366;2022-11-15T07:52:30;6.42;77.56
66594;DHT22;53450;42.584;23.366;2022-11-15T07:55:14;6.50;77.19
66594;DHT22;53450;42.584;23.366;2022-11-15T07:58:07;6.68;76.50
66594;DHT22;53450;42.584;23.366;2022-11-15T08:00:52;6.56;76.56
66594;DHT22;53450;42.584;23.366;2022-11-15T08:03:36;6.57;76.54
66594;DHT22;53450;42.584;23.366;2022-11-15T08:06:21;6.60;76.00
66594;DHT22;53450;42.584;23.366;2022-11-15T08:11:08;6.69;76.17
66594;DHT22;53450;42.584;23.366;2022-11-15T08:13:52;6.80;73.51
66594;DHT22;53450;42.584;23.366;2022-11-15T08:16:36;6.75;74.87
66594;DHT22;53450;42.584;23.366;2022-11-15T08:19:20;6.73;75.43
66594;DHT22;53450;42.584;23.366;2022-11-15T08:22:04;6.81;76.41
66594;DHT22;53450;42.584;23.366;2022-11-15T08:24:48;6.97;75.25
66594;DHT22;53450;42.584;23.366;2022-11-15T08:27:33;6.91;76.49
66594;DHT22;53450;42.584;23.366;2022-11-15T08:30:16;7.08;75.36
66594;DHT22;53450;42.584;23.366;2022-11-15T08:33:00;7.44;74.86
66594;DHT22;53450;42.584;23.366;2022-11-15T08:35:44;8.14;73.29
66594;DHT22;53450;42.584;23.366;2022-11-15T08:38:29;8.45;70.95
66594;DHT22;53450;42.584;23.366;2022-11-15T08:41:26;7.97;72.33
66594;DHT22;53450;42.584;23.366;2022-11-15T08:44:11;7.78;73.55
66594;DHT22;53450;42.584;23.366;2022-11-15T08:46:55;7.76;73.35
66594;DHT22;53450;42.584;23.366;2022-11-15T08:49:39;7.69;73.01
66594;DHT22;53450;42.584;23.366;2022-11-15T08:52:23;7.61;73.56
66594;DHT22;53450;42.584;23.366;2022-11-15T08:55:07;7.59;74.03
66594;DHT22;53450;42.584;23.366;2022-11-15T08:57:52;7.35;74.56
66594;DHT22;53450;42.584;23.366;2022-11-15T09:00:36;7.44;75.20
66594;DHT22;53450;42.584;23.366;2022-11-15T09:03:20;7.56;74.14
66594;DHT22;53450;42.584;23.366;2022-11-15T09:06:04;7.70;74.06
66594;DHT22;53450;42.584;23.366;2022-11-15T09:08:48;7.79;73.28
66594;DHT22;53450;42.584;23.366;2022-11-15T09:11:32;7.87;73.53
66594;DHT22;53450;42.584;23.366;2022-11-15T09:14:16;8.04;73.27
66594;DHT22;53450;42.584;23.366;2022-11-15T09:17:01;8.13;72.44
66594;DHT22;53450;42.584;23.366;2022-11-15T09:19:45;8.31;71.30
66594;DHT22;53450;42.584;23.366;2022-11-15T09:22:36;8.42;71.19
66594;DHT22;53450;42.584;23.366;2022-11-15T09:25:22;8.52;70.94
66594;DHT22;53450;42.584;23.366;2022-11-15T09:30:25;9.00;69.48
66594;DHT22;53450;42.584;23.366;2022-11-15T09:33:11;9.12;70.23
66594;DHT22;53450;42.584;23.366;2022-11-15T09:36:01;9.20;69.13
66594;DHT22;53450;42.584;23.366;2022-11-15T09:38:46;9.16;70.12
66594;DHT22;53450;42.584;23.366;2022-11-15T09:47:53;8.82;70.56
66594;DHT22;53450;42.584;23.366;2022-11-15T09:50:48;8.92;70.87
66594;DHT22;53450;42.584;23.366;2022-11-15T09:53:29;8.96;70.82
66594;DHT22;53450;42.584;23.366;2022-11-15T09:56:05;9.15;69.94
66594;DHT22;53450;42.584;23.366;2022-11-15T10:04:27;9.10;69.24
66594;DHT22;53450;42.584;23.366;2022-11-15T10:07:02;9.02;69.43
66594;DHT22;53450;42.584;23.366;2022-11-15T10:09:39;9.02;70.12
66594;DHT22;53450;42.584;23.366;2022-11-15T10:12:08;8.92;70.24
66594;DHT22;53450;42.584;23.366;2022-11-15T10:14:35;8.80;70.78
66594;DHT22;53450;42.584;23.366;2022-11-15T10:17:50;8.79;70.74
66594;DHT22;53450;42.584;23.366;2022-11-15T10:20:25;8.80;70.10
66594;DHT22;53450;42.584;23.366;2022-11-15T10:23:12;8.58;70.50
66594;DHT22;53450;42.584;23.366;2022-11-15T10:26:08;8.79;70.79
66594;DHT22;53450;42.584;23.366;2022-11-15T10:33:49;9.22;68.26
66594;DHT22;53450;42.584;23.366;2022-11-15T10:36:28;9.43;67.21
66594;DHT22;53450;42.584;23.366;2022-11-15T10:38:57;9.43;66.74
66594;DHT22;53450;42.584;23.366;2022-11-15T10:42:28;9.62;66.87
66594;DHT22;53450;42.584;23.366;2022-11-15T10:45:34;9.77;65.58
66594;DHT22;53450;42.584;23.366;2022-11-15T10:50:43;10.06;65.11
66594;DHT22;53450;42.584;23.366;2022-11-15T10:53:43;10.13;64.29
66594;DHT22;53450;42.584;23.366;2022-11-15T10:56:13;10.03;64.54
66594;DHT22;53450;42.584;23.366;2022-11-15T10:58:50;10.13;64.82
66594;DHT22;53450;42.584;23.366;2022-11-15T11:01:19;10.25;64.17
66594;DHT22;53450;42.584;23.366;2022-11-15T11:06:24;10.35;64.29
66594;DHT22;53450;42.584;23.366;2022-11-15T11:09:02;10.25;64.71
66594;DHT22;53450;42.584;23.366;2022-11-15T11:11:51;9.99;65.66
66594;DHT22;53450;42.584;23.366;2022-11-15T11:14:21;9.99;65.44
66594;DHT22;53450;42.584;23.366;2022-11-15T11:17:57;9.96;65.83
66594;DHT22;53450;42.584;23.366;2022-11-15T11:20:15;9.89;65.44
66594;DHT22;53450;42.584;23.366;2022-11-15T11:23:00;9.78;65.06
66594;DHT22;53450;42.584;23.366;2022-11-15T11:31:41;10.25;64.97
66594;DHT22;53450;42.584;23.366;2022-11-15T11:34:39;10.30;64.77
66594;DHT22;53450;42.584;23.366;2022-11-15T11:37:32;10.30;64.98
66594;DHT22;53450;42.584;23.366;2022-11-15T11:40:29;10.28;65.34
66594;DHT22;53450;42.584;23.366;2022-11-15T11:49:12;9.98;66.20
66594;DHT22;53450;42.584;23.366;2022-11-15T11:51:50;10.22;65.37
66594;DHT22;53450;42.584;23.366;2022-11-15T11:57:38;10.85;63.17
66594;DHT22;53450;42.584;23.366;2022-11-15T12:02:43;10.80;63.91
66594;DHT22;53450;42.584;23.366;2022-11-15T12:05:22;10.64;64.36
66594;DHT22;53450;42.584;23.366;2022-11-15T12:07:50;10.53;64.85
66594;DHT22;53450;42.584;23.366;2022-11-15T12:10:24;10.42;64.88
66594;DHT22;53450;42.584;23.366;2022-11-15T12:13:11;10.33;65.46
66594;DHT22;53450;42.584;23.366;2022-11-15T12:19:32;10.40;65.41
66594;DHT22;53450;42.584;23.366;2022-11-15T12:26:10;10.19;66.62
66594;DHT22;53450;42.584;23.366;2022-11-15T12:41:20;10.19;66.74
66594;DHT22;53450;42.584;23.366;2022-11-15T12:48:20;10.25;66.92
66594;DHT22;53450;42.584;23.366;2022-11-15T12:54:47;10.16;67.58
66594;DHT22;53450;42.584;23.366;2022-11-15T12:57:33;10.16;67.25
66594;DHT22;53450;42.584;23.366;2022-11-15T13:03:24;10.71;65.46
66594;DHT22;53450;42.584;23.366;2022-11-15T13:05:56;10.90;64.85
66594;DHT22;53450;42.584;23.366;2022-11-15T13:08:46;11.03;64.15
66594;DHT22;53450;42.584;23.366;2022-11-15T13:14:42;10.70;64.67
66594;DHT22;53450;42.584;23.366;2022-11-15T13:22:18;10.56;65.73
66594;DHT22;53450;42.584;23.366;2022-11-15T13:25:03;10.61;65.00
66594;DHT22;53450;42.584;23.366;2022-11-15T13:27:29;10.46;65.75
66594;DHT22;53450;42.584;23.366;2022-11-15T13:29:56;10.03;67.06
66594;DHT22;53450;42.584;23.366;2022-11-15T13:32:22;10.02;67.42
66594;DHT22;53450;42.584;23.366;2022-11-15T13:34:49;10.05;67.32
66594;DHT22;53450;42.584;23.366;2022-11-15T13:39:47;9.82;67.82
66594;DHT22;53450;42.584;23.366;2022-11-15T13:42:18;9.89;67.33
66594;DHT22;53450;42.584;23.366;2022-11-15T13:45:14;10.02;67.14
66594;DHT22;53450;42.584;23.366;2022-11-15T13:47:40;9.98;67.07
66594;DHT22;53450;42.584;23.366;2022-11-15T13:50:14;9.98;67.26
66594;DHT22;53450;42.584;23.366;2022-11-15T14:05:05;9.88;67.67
66594;DHT22;53450;42.584;23.366;2022-11-15T14:10:50;9.92;67.70
66594;DHT22;53450;42.584;23.366;2022-11-15T14:14:13;9.95;67.95
66594;DHT22;53450;42.584;23.366;2022-11-15T14:17:18;9.92;68.06
66594;DHT22;53450;42.584;23.366;2022-11-15T14:20:18;9.85;68.20
66594;DHT22;53450;42.584;23.366;2022-11-15T14:22:57;9.78;68.45
66594;DHT22;53450;42.584;23.366;2022-11-15T14:25:51;9.62;68.73
66594;DHT22;53450;42.584;23.366;2022-11-15T14:28:33;9.47;69.14
66594;DHT22;53450;42.584;23.366;2022-11-15T14:31:20;9.33;69.28
66594;DHT22;53450;42.584;23.366;2022-11-15T14:34:11;9.28;69.77
66594;DHT22;53450;42.584;23.366;2022-11-15T14:40:35;9.15;70.46
66594;DHT22;53450;42.584;23.366;2022-11-15T14:45:01;8.73;71.82
66594;DHT22;53450;42.584;23.366;2022-11-15T14:47:39;8.51;72.65
66594;DHT22;53450;42.584;23.366;2022-11-15T14:50:23;8.31;73.27
66594;DHT22;53450;42.584;23.366;2022-11-15T14:53:01;8.26;73.62
66594;DHT22;53450;42.584;23.366;2022-11-15T14:55:40;8.19;73.84
66594;DHT22;53450;42.584;23.366;2022-11-15T14:58:31;8.16;74.00
66594;DHT22;53450;42.584;23.366;2022-11-15T15:01:31;8.01;74.27
66594;DHT22;53450;42.584;23.366;2022-11-15T15:04:29;7.89;74.65
66594;DHT22;53450;42.584;23.366;2022-11-15T15:07:30;7.83;74.76
66594;DHT22;53450;42.584;23.366;2022-11-15T15:10:15;7.58;75.47
66594;DHT22;53450;42.584;23.366;2022-11-15T15:13:00;7.44;76.18
66594;DHT22;53450;42.584;23.366;2022-11-15T15:15:51;7.24;76.50
66594;DHT22;53450;42.584;23.366;2022-11-15T15:18:18;7.24;76.60
66594;DHT22;53450;42.584;23.366;2022-11-15T15:20:45;7.15;76.44
66594;DHT22;53450;42.584;23.366;2022-11-15T15:23:17;7.03;76.78
66594;DHT22;53450;42.584;23.366;2022-11-15T15:25:44;6.94;77.14
66594;DHT22;53450;42.584;23.366;2022-11-15T15:28:11;6.86;77.46
66594;DHT22;53450;42.584;23.366;2022-11-15T15:30:37;6.77;77.62
66594;DHT22;53450;42.584;23.366;2022-11-15T15:33:03;6.80;77.80
66594;DHT22;53450;42.584;23.366;2022-11-15T15:35:30;6.83;77.87
66594;DHT22;53450;42.584;23.366;2022-11-15T15:37:57;6.80;77.52
66594;DHT22;53450;42.584;23.366;2022-11-15T15:40:47;6.72;77.70
66594;DHT22;53450;42.584;23.366;2022-11-15T15:43:12;6.59;78.14
66594;DHT22;53450;42.584;23.366;2022-11-15T15:45:40;6.48;78.49
66594;DHT22;53450;42.584;23.366;2022-11-15T15:48:16;6.41;78.44
66594;DHT22;53450;42.584;23.366;2022-11-15T15:50:42;6.31;79.08
66594;DHT22;53450;42.584;23.366;2022-11-15T15:53:09;6.32;79.37
66594;DHT22;53450;42.584;23.366;2022-11-15T15:55:39;6.39;79.22
66594;DHT22;53450;42.584;23.366;2022-11-15T15:58:05;6.39;78.99
66594;DHT22;53450;42.584;23.366;2022-11-15T16:00:31;6.32;79.12
66594;DHT22;53450;42.584;23.366;2022-11-15T16:03:00;6.28;79.29
66594;DHT22;53450;42.584;23.366;2022-11-15T16:05:25;6.25;79.61
66594;DHT22;53450;42.584;23.366;2022-11-15T16:07:51;6.28;79.05
66594;DHT22;53450;42.584;23.366;2022-11-15T16:10:27;6.32;78.80
66594;DHT22;53450;42.584;23.366;2022-11-15T16:12:54;6.31;78.85
66594;DHT22;53450;42.584;23.366;2022-11-15T16:15:21;6.24;79.02
66594;DHT22;53450;42.584;23.366;2022-11-15T16:17:50;6.15;79.36
66594;DHT22;53450;42.584;23.366;2022-11-15T16:20:35;6.08;79.61
66594;DHT22;53450;42.584;23.366;2022-11-15T16:23:06;6.05;79.77
66594;DHT22;53450;42.584;23.366;2022-11-15T16:25:44;6.07;80.08
66594;DHT22;53450;42.584;23.366;2022-11-15T16:30:43;6.14;79.45
66594;DHT22;53450;42.584;23.366;2022-11-15T16:33:09;6.20;79.48
66594;DHT22;53450;42.584;23.366;2022-11-15T16:35:34;6.33;79.00
66594;DHT22;53450;42.584;23.366;2022-11-15T16:38:01;6.26;78.74
66594;DHT22;53450;42.584;23.366;2022-11-15T16:40:32;6.17;79.23
66594;DHT22;53450;42.584;23.366;2022-11-15T16:42:58;6.22;79.24
66594;DHT22;53450;42.584;23.366;2022-11-15T16:46:43;6.25;78.74
66594;DHT22;53450;42.584;23.366;2022-11-15T16:49:13;6.21;79.05
66594;DHT22;53450;42.584;23.366;2022-11-15T16:51:40;6.21;78.95
66594;DHT22;53450;42.584;23.366;2022-11-15T16:54:06;6.20;78.84
66594;DHT22;53450;42.584;23.366;2022-11-15T16:56:32;6.14;78.95
66594;DHT22;53450;42.584;23.366;2022-11-15T16:58:59;5.89;79.65
66594;DHT22;53450;42.584;23.366;2022-11-15T17:01:30;5.90;80.31
66594;DHT22;53450;42.584;23.366;2022-11-15T17:03:57;6.02;79.61
66594;DHT22;53450;42.584;23.366;2022-11-15T17:06:23;6.00;79.64
66594;DHT22;53450;42.584;23.366;2022-11-15T17:08:49;5.95;79.98
66594;DHT22;53450;42.584;23.366;2022-11-15T17:11:18;5.91;80.32
66594;DHT22;53450;42.584;23.366;2022-11-15T17:13:45;5.89;79.18
66594;DHT22;53450;42.584;23.366;2022-11-15T17:16:13;5.95;79.39
66594;DHT22;53450;42.584;23.366;2022-11-15T17:18:40;5.87;79.53
66594;DHT22;53450;42.584;23.366;2022-11-15T17:21:12;5.75;79.91
66594;DHT22;53450;42.584;23.366;2022-11-15T17:23:38;5.63;79.80
66594;DHT22;53450;42.584;23.366;2022-11-15T17:26:05;5.60;79.97
66594;DHT22;53450;42.584;23.366;2022-11-15T17:28:31;5.52;80.41
66594;DHT22;53450;42.584;23.366;2022-11-15T17:30:57;5.36;80.37
66594;DHT22;53450;42.584;23.366;2022-11-15T17:33:24;5.31;80.98
66594;DHT22;53450;42.584;23.366;2022-11-15T17:35:57;5.31;80.56
66594;DHT22;53450;42.584;23.366;2022-11-15T17:38:23;5.31;81.04
66594;DHT22;53450;42.584;23.366;2022-11-15T17:41:05;5.28;81.40
66594;DHT22;53450;42.584;23.366;2022-11-15T17:43:32;5.11;81.86
66594;DHT22;53450;42.584;23.366;2022-11-15T17:45:59;5.19;80.90
66594;DHT22;53450;42.584;23.366;2022-11-15T17:48:25;5.18;81.17
66594;DHT22;53450;42.584;23.366;2022-11-15T17:51:02;5.18;81.34
66594;DHT22;53450;42.584;23.366;2022-11-15T17:53:38;5.18;81.85
66594;DHT22;53450;42.584;23.366;2022-11-15T17:56:09;5.23;80.37
66594;DHT22;53450;42.584;23.366;2022-11-15T17:58:36;5.16;81.41
66594;DHT22;53450;42.584;23.366;2022-11-15T18:03:50;5.05;82.03
66594;DHT22;53450;42.584;23.366;2022-11-15T18:06:17;5.07;81.82
66594;DHT22;53450;42.584;23.366;2022-11-15T18:08:46;5.09;82.42
66594;DHT22;53450;42.584;23.366;2022-11-15T18:11:15;5.04;81.80
66594;DHT22;53450;42.584;23.366;2022-11-15T18:14:11;5.05;81.54
66594;DHT22;53450;42.584;23.366;2022-11-15T18:16:38;5.09;81.71
66594;DHT22;53450;42.584;23.366;2022-11-15T18:19:05;5.08;81.89
66594;DHT22;53450;42.584;23.366;2022-11-15T18:21:38;5.07;81.38
66594;DHT22;53450;42.584;23.366;2022-11-15T18:24:24;5.02;82.11
66594;DHT22;53450;42.584;23.366;2022-11-15T18:26:50;5.05;82.69
66594;DHT22;53450;42.584;23.366;2022-11-15T18:29:15;5.07;82.67
66594;DHT22;53450;42.584;23.366;2022-11-15T18:31:44;5.13;81.79
66594;DHT22;53450;42.584;23.366;2022-11-15T18:34:11;5.08;82.06
66594;DHT22;53450;42.584;23.366;2022-11-15T18:36:37;4.96;82.12
66594;DHT22;53450;42.584;23.366;2022-11-15T18:39:03;5.04;82.21
66594;DHT22;53450;42.584;23.366;2022-11-15T18:41:31;4.96;82.38
66594;DHT22;53450;42.584;23.366;2022-11-15T18:44:42;4.91;82.67
66594;DHT22;53450;42.584;23.366;2022-11-15T18:47:08;4.87;82.79
66594;DHT22;53450;42.584;23.366;2022-11-15T18:49:33;4.80;82.91
66594;DHT22;53450;42.584;23.366;2022-11-15T18:51:59;4.83;82.96
66594;DHT22;53450;42.584;23.366;2022-11-15T18:54:25;4.78;83.21
66594;DHT22;53450;42.584;23.366;2022-11-15T18:56:50;4.87;83.51
66594;DHT22;53450;42.584;23.366;2022-11-15T19:02:25;4.88;82.85
66594;DHT22;53450;42.584;23.366;2022-11-15T19:04:52;4.88;82.95
66594;DHT22;53450;42.584;23.366;2022-11-15T19:07:17;4.87;82.96
66594;DHT22;53450;42.584;23.366;2022-11-15T19:09:43;4.87;82.99
66594;DHT22;53450;42.584;23.366;2022-11-15T19:12:10;4.83;83.00
66594;DHT22;53450;42.584;23.366;2022-11-15T19:14:35;4.81;83.04
66594;DHT22;53450;42.584;23.366;2022-11-15T19:17:01;4.83;83.00
66594;DHT22;53450;42.584;23.366;2022-11-15T19:19:27;4.81;82.62
66594;DHT22;53450;42.584;23.366;2022-11-15T19:21:53;4.70;83.10
66594;DHT22;53450;42.584;23.366;2022-11-15T19:24:19;4.73;83.23
66594;DHT22;53450;42.584;23.366;2022-11-15T19:27:09;4.67;83.14
66594;DHT22;53450;42.584;23.366;2022-11-15T19:30:01;4.61;83.37
66594;DHT22;53450;42.584;23.366;2022-11-15T19:32:52;4.54;83.60